createdAt,value
2017-02-27T00:00:46.415Z,23.25
2017-02-27T00:01:57.163Z,23.25
2017-02-27T00:03:08.191Z,23.35
2017-02-27T00:04:18.152Z,23.36
2017-02-27T00:05:28.910Z,23.25
2017-02-27T00:06:39.272Z,23.35
2017-02-27T00:07:50.031Z,23.35
2017-02-27T00:09:01.043Z,23.25
2017-02-27T00:10:11.813Z,23.44
2017-02-27T00:11:22.184Z,23.44
2017-02-27T00:12:32.535Z,23.35
2017-02-27T00:13:42.933Z,22.96
2017-02-27T00:14:54.001Z,23.15
2017-02-27T00:16:04.366Z,22.96
2017-02-27T00:17:15.134Z,23.06
2017-02-27T00:18:25.880Z,22.96
2017-02-27T00:19:36.658Z,22.96
2017-02-27T00:20:47.333Z,22.96
2017-02-27T00:21:57.707Z,22.96
2017-02-27T00:23:08.468Z,22.96
2017-02-27T00:24:18.847Z,22.96
2017-02-27T00:25:29.221Z,22.96
2017-02-27T00:26:40.289Z,22.96
2017-02-27T00:27:51.060Z,22.86
2017-02-27T00:29:01.809Z,23.06
2017-02-27T00:30:12.567Z,23.06
2017-02-27T00:31:22.926Z,22.86
2017-02-27T00:32:33.962Z,22.96
2017-02-27T00:33:44.715Z,23.15
2017-02-27T00:34:55.076Z,23.06
2017-02-27T00:36:05.849Z,23.06
2017-02-27T00:37:16.622Z,23.15
2017-02-27T00:38:27.336Z,23.06
2017-02-27T00:39:37.719Z,23.06
2017-02-27T00:40:48.478Z,23.06
2017-02-27T00:41:59.236Z,23.15
2017-02-27T00:43:09.992Z,23.06
2017-02-27T00:44:20.993Z,23.06
2017-02-27T00:45:31.745Z,23.06
2017-02-27T00:46:41.726Z,23.06
2017-02-27T00:47:52.086Z,23.15
2017-02-27T00:49:02.875Z,22.96
2017-02-27T00:50:13.470Z,23.07
2017-02-27T00:51:23.816Z,23.06
2017-02-27T00:52:34.547Z,22.96
2017-02-27T00:53:45.371Z,22.96
2017-02-27T00:54:55.358Z,23.06
2017-02-27T00:56:05.578Z,23.06
2017-02-27T00:57:16.328Z,23.15
2017-02-27T00:58:26.689Z,23.06
2017-02-27T00:59:37.028Z,22.96
2017-02-27T01:00:47.799Z,22.96
2017-02-27T01:01:58.401Z,22.96
2017-02-27T01:03:09.173Z,23.06
2017-02-27T01:04:19.927Z,23.06
2017-02-27T01:05:30.696Z,22.96
2017-02-27T01:06:41.461Z,22.96
2017-02-27T01:07:51.729Z,22.96
2017-02-27T01:09:01.684Z,23.06
2017-02-27T01:10:11.265Z,22.96
2017-02-27T01:11:22.015Z,22.96
2017-02-27T01:12:32.765Z,23.06
2017-02-27T01:13:43.035Z,22.96
2017-02-27T01:14:53.802Z,22.96
2017-02-27T01:16:04.145Z,22.97
2017-02-27T01:17:14.507Z,22.96
2017-02-27T01:18:25.287Z,22.86
2017-02-27T01:19:35.936Z,22.86
2017-02-27T01:20:46.699Z,22.96
2017-02-27T01:21:56.654Z,22.96
2017-02-27T01:23:07.006Z,22.86
2017-02-27T01:24:17.370Z,22.96
2017-02-27T01:25:28.044Z,22.86
2017-02-27T01:26:38.410Z,22.78
2017-02-27T01:27:48.762Z,22.77
2017-02-27T01:28:59.504Z,22.96
2017-02-27T01:30:09.856Z,22.77
2017-02-27T01:31:20.467Z,22.77
2017-02-27T01:32:30.807Z,22.77
2017-02-27T01:33:41.150Z,22.86
2017-02-27T01:34:51.908Z,22.86
2017-02-27T01:52:59.149Z,22.58
2017-02-27T01:54:09.776Z,22.96
2017-02-27T01:55:20.516Z,22.86
2017-02-27T01:56:31.281Z,22.96
2017-02-27T01:57:41.253Z,22.86
2017-02-27T01:58:51.604Z,22.96
2017-02-27T02:00:02.219Z,22.58
2017-02-27T02:01:12.982Z,22.86
2017-02-27T02:02:23.322Z,22.58
2017-02-27T02:03:33.700Z,22.96
2017-02-27T02:04:44.452Z,22.86
2017-02-27T02:05:55.057Z,22.58
2017-02-27T02:07:05.000Z,22.58
2017-02-27T02:08:15.369Z,22.86
2017-02-27T02:09:25.740Z,22.67
2017-02-27T02:10:36.510Z,22.86
2017-02-27T02:11:47.531Z,22.86
2017-02-27T02:12:57.870Z,22.86
2017-02-27T02:14:08.635Z,22.86
2017-02-27T02:15:19.396Z,22.96
2017-02-27T02:16:29.761Z,22.86
2017-02-27T02:17:40.373Z,22.86
2017-02-27T02:18:51.130Z,22.96
2017-02-27T02:20:01.524Z,22.67
2017-02-27T02:21:12.280Z,22.86
2017-02-27T02:22:22.654Z,22.86
2017-02-27T02:23:33.672Z,22.77
2017-02-27T02:24:44.430Z,22.67
2017-02-27T02:25:55.177Z,22.77
2017-02-27T02:27:05.934Z,22.96
2017-02-27T02:28:16.299Z,22.58
2017-02-27T02:29:27.374Z,22.58
2017-02-27T02:30:38.135Z,22.77
2017-02-27T02:31:48.095Z,22.86
2017-02-27T02:32:58.859Z,22.58
2017-02-27T02:34:08.814Z,22.77
2017-02-27T02:35:19.801Z,22.67
2017-02-27T02:36:30.171Z,22.67
2017-02-27T02:37:40.538Z,22.58
2017-02-27T02:38:50.883Z,22.67
2017-02-27T02:40:00.837Z,22.67
2017-02-27T02:41:11.845Z,22.77
2017-02-27T02:42:22.203Z,22.58
2017-02-27T02:43:33.224Z,22.67
2017-02-27T02:44:44.003Z,22.67
2017-02-27T02:45:54.796Z,22.77
2017-02-27T02:47:05.403Z,22.77
2017-02-27T02:48:16.149Z,22.77
2017-02-27T02:49:26.923Z,22.88
2017-02-27T02:50:37.311Z,22.77
2017-02-27T02:51:47.309Z,22.77
2017-02-27T02:52:58.366Z,22.67
2017-02-27T02:54:08.741Z,22.78
2017-02-27T02:55:19.109Z,22.67
2017-02-27T02:56:29.851Z,22.77
2017-02-27T02:57:39.851Z,22.78
2017-02-27T02:58:50.066Z,22.67
2017-02-27T03:00:00.418Z,22.77
2017-02-27T03:01:10.786Z,22.77
2017-02-27T03:02:21.134Z,22.77
2017-02-27T03:03:31.115Z,22.67
2017-02-27T03:04:41.729Z,22.67
2017-02-27T03:05:52.081Z,22.67
2017-02-27T03:07:02.456Z,22.67
2017-02-27T03:08:13.252Z,22.77
2017-02-27T03:09:23.996Z,22.59
2017-02-27T03:10:34.203Z,22.48
2017-02-27T03:11:44.965Z,22.77
2017-02-27T03:12:55.733Z,22.48
2017-02-27T03:14:06.101Z,22.58
2017-02-27T03:15:16.935Z,22.48
2017-02-27T03:16:27.973Z,22.48
2017-02-27T03:17:38.721Z,22.48
2017-02-27T03:18:48.678Z,22.48
2017-02-27T03:19:59.439Z,22.48
2017-02-27T03:21:10.062Z,22.48
2017-02-27T03:22:20.651Z,22.48
2017-02-27T03:23:30.628Z,22.58
2017-02-27T03:24:40.977Z,22.48
2017-02-27T03:25:51.739Z,22.29
2017-02-27T03:27:02.123Z,22.58
2017-02-27T03:28:12.337Z,22.58
2017-02-27T03:29:23.088Z,22.38
2017-02-27T03:30:33.441Z,22.59
2017-02-27T03:31:43.796Z,22.58
2017-02-27T03:32:54.177Z,22.49
2017-02-27T03:34:04.843Z,22.48
2017-02-27T03:35:15.605Z,22.48
2017-02-27T03:36:25.976Z,22.48
2017-02-27T03:37:36.727Z,22.48
2017-02-27T03:38:47.464Z,22.59
2017-02-27T03:39:58.485Z,22.48
2017-02-27T03:41:08.849Z,22.38
2017-02-27T03:42:19.594Z,22.38
2017-02-27T03:43:30.359Z,22.19
2017-02-27T03:44:40.731Z,22.19
2017-02-27T03:45:51.789Z,22.38
2017-02-27T03:47:02.161Z,22.19
2017-02-27T03:48:12.510Z,22
2017-02-27T03:49:23.252Z,22
2017-02-27T03:50:34.026Z,22.29
2017-02-27T03:51:45.062Z,22
2017-02-27T03:52:55.825Z,22.19
2017-02-27T03:54:06.583Z,22.39
2017-02-27T03:55:16.968Z,22.19
2017-02-27T03:56:26.932Z,22
2017-02-27T03:57:37.630Z,22.19
2017-02-27T03:58:48.005Z,22.19
2017-02-27T03:59:58.750Z,22.38
2017-02-27T04:01:09.511Z,22.29
2017-02-27T04:02:19.880Z,22
2017-02-27T04:03:30.723Z,22
2017-02-27T04:04:41.485Z,22.09
2017-02-27T04:05:52.244Z,22
2017-02-27T04:07:02.644Z,22.09
2017-02-27T04:08:13.044Z,22.09
2017-02-27T04:09:23.665Z,22.09
2017-02-27T04:10:34.448Z,22.09
2017-02-27T04:11:45.219Z,22.09
2017-02-27T04:12:54.785Z,22.19
2017-02-27T04:14:05.533Z,22.19
2017-02-27T04:15:16.548Z,22.19
2017-02-27T04:16:26.903Z,22.01
2017-02-27T04:17:37.256Z,22
2017-02-27T04:18:48.001Z,22
2017-02-27T04:19:58.349Z,22.19
2017-02-27T04:21:08.570Z,22.09
2017-02-27T04:22:18.535Z,22.09
2017-02-27T04:23:28.896Z,22.19
2017-02-27T04:24:39.255Z,22.19
2017-02-27T04:25:49.616Z,22.19
2017-02-27T04:27:00.222Z,22.09
2017-02-27T04:28:10.599Z,22.19
2017-02-27T04:29:20.942Z,22.19
2017-02-27T04:30:31.697Z,21.91
2017-02-27T04:31:42.449Z,22.09
2017-02-27T04:32:52.689Z,22
2017-02-27T04:34:03.035Z,22
2017-02-27T04:35:13.777Z,22
2017-02-27T04:36:24.138Z,22.09
2017-02-27T04:37:34.081Z,22.09
2017-02-27T04:38:45.096Z,22.19
2017-02-27T04:39:55.835Z,22.19
2017-02-27T04:41:06.202Z,22.19
2017-02-27T04:42:16.959Z,22.19
2017-02-27T04:43:27.325Z,22
2017-02-27T04:44:37.943Z,22.19
2017-02-27T04:45:47.898Z,22
2017-02-27T04:46:58.664Z,22.19
2017-02-27T04:48:09.018Z,22.29
2017-02-27T04:49:19.370Z,22.29
2017-02-27T04:50:30.025Z,22.19
2017-02-27T04:51:39.597Z,22.19
2017-02-27T04:52:49.569Z,22
2017-02-27T04:54:00.346Z,22.19
2017-02-27T04:55:10.765Z,22
2017-02-27T04:56:21.806Z,22.09
2017-02-27T04:57:32.550Z,22
2017-02-27T04:58:42.890Z,21.91
2017-02-27T04:59:52.871Z,22.09
2017-02-27T05:01:03.626Z,22.19
2017-02-27T05:02:14.647Z,22.19
2017-02-27T05:03:25.395Z,22.09
2017-02-27T05:04:36.148Z,22
2017-02-27T05:05:46.883Z,22.38
2017-02-27T05:06:56.823Z,22.19
2017-02-27T05:08:07.116Z,22.19
2017-02-27T05:09:17.888Z,22.29
2017-02-27T05:10:28.257Z,22.09
2017-02-27T05:11:38.223Z,22.09
2017-02-27T05:12:48.956Z,22.19
2017-02-27T05:13:59.974Z,22.09
2017-02-27T05:15:09.948Z,22
2017-02-27T05:16:19.920Z,22
2017-02-27T05:17:30.681Z,22
2017-02-27T05:18:41.023Z,22.09
2017-02-27T05:19:51.637Z,22
2017-02-27T05:21:02.393Z,22.29
2017-02-27T05:22:12.735Z,22.09
2017-02-27T05:23:23.507Z,22.38
2017-02-27T05:24:34.280Z,22.29
2017-02-27T05:25:45.261Z,22.29
2017-02-27T05:26:55.711Z,22.09
2017-02-27T05:28:06.063Z,21.91
2017-02-27T05:29:16.812Z,22
2017-02-27T05:30:27.548Z,21.81
2017-02-27T05:31:38.546Z,21.91
2017-02-27T05:32:49.311Z,21.81
2017-02-27T05:34:00.056Z,22
2017-02-27T05:35:10.421Z,21.81
2017-02-27T05:36:20.019Z,22
2017-02-27T05:37:31.010Z,22
2017-02-27T05:38:41.774Z,22
2017-02-27T05:39:52.519Z,22.09
2017-02-27T05:41:03.263Z,21.91
2017-02-27T05:42:14.021Z,21.91
2017-02-27T05:43:24.237Z,21.91
2017-02-27T05:44:34.984Z,21.81
2017-02-27T05:45:45.749Z,21.91
2017-02-27T05:46:56.082Z,21.91
2017-02-27T05:48:06.840Z,21.91
2017-02-27T05:49:17.841Z,21.91
2017-02-27T05:50:28.200Z,22
2017-02-27T05:51:38.555Z,22.09
2017-02-27T05:52:48.515Z,22
2017-02-27T05:53:58.886Z,22
2017-02-27T05:55:09.477Z,21.91
2017-02-27T05:56:19.838Z,21.81
2017-02-27T05:57:29.784Z,21.71
2017-02-27T05:58:40.546Z,21.91
2017-02-27T05:59:50.907Z,21.91
2017-02-27T06:01:00.741Z,21.91
2017-02-27T06:02:10.706Z,21.61
2017-02-27T06:03:21.449Z,21.91
2017-02-27T06:04:32.210Z,21.61
2017-02-27T06:05:42.956Z,21.81
2017-02-27T06:06:53.619Z,21.61
2017-02-27T06:08:04.002Z,21.71
2017-02-27T06:09:14.745Z,21.81
2017-02-27T06:10:25.497Z,21.81
2017-02-27T06:11:36.229Z,21.61
2017-02-27T06:12:47.285Z,21.81
2017-02-27T06:13:57.669Z,21.61
2017-02-27T06:15:07.629Z,21.71
2017-02-27T06:16:17.998Z,21.52
2017-02-27T06:17:27.983Z,21.61
2017-02-27T06:18:38.611Z,21.61
2017-02-27T06:19:49.372Z,21.61
2017-02-27T06:20:59.715Z,21.61
2017-02-27T06:22:10.112Z,21.52
2017-02-27T06:23:20.455Z,21.52
2017-02-27T06:24:31.480Z,21.81
2017-02-27T06:25:42.226Z,21.71
2017-02-27T06:26:52.164Z,21.42
2017-02-27T06:28:02.524Z,21.42
2017-02-27T06:29:12.876Z,21.71
2017-02-27T06:30:23.881Z,21.61
2017-02-27T06:31:34.249Z,21.52
2017-02-27T06:32:45.008Z,21.61
2017-02-27T06:33:54.586Z,21.42
2017-02-27T06:35:05.359Z,21.52
2017-02-27T06:36:15.999Z,21.33
2017-02-27T06:37:26.764Z,21.44
2017-02-27T06:38:37.561Z,21.33
2017-02-27T06:39:47.938Z,21.33
2017-02-27T06:40:58.707Z,21.33
2017-02-27T06:42:09.753Z,21.33
2017-02-27T06:43:20.531Z,21.33
2017-02-27T06:44:31.289Z,21.33
2017-02-27T06:45:41.683Z,21.14
2017-02-27T06:46:52.047Z,21.23
2017-02-27T06:48:03.050Z,21.14
2017-02-27T06:49:13.795Z,21.23
2017-02-27T06:50:24.157Z,21.23
2017-02-27T06:51:34.896Z,21.14
2017-02-27T06:52:44.864Z,21.23
2017-02-27T06:53:55.914Z,21.14
2017-02-27T06:55:06.652Z,21.23
2017-02-27T06:56:17.435Z,21.14
2017-02-27T06:57:27.395Z,21.14
2017-02-27T06:58:37.367Z,21.23
2017-02-27T06:59:47.972Z,21.44
2017-02-27T07:00:58.337Z,21.14
2017-02-27T07:02:08.723Z,21.42
2017-02-27T07:03:18.678Z,21.42
2017-02-27T07:04:28.645Z,21.52
2017-02-27T07:05:38.864Z,21.61
2017-02-27T07:06:49.231Z,21.52
2017-02-27T07:07:59.202Z,21.61
2017-02-27T07:09:09.261Z,21.82
2017-02-27T07:10:19.622Z,21.81
2017-02-27T07:11:30.289Z,22.09
2017-02-27T07:12:40.688Z,22.09
2017-02-27T07:13:51.501Z,22
2017-02-27T07:15:01.457Z,22.09
2017-02-27T07:16:11.853Z,22.09
2017-02-27T07:17:22.509Z,22.38
2017-02-27T07:18:33.297Z,22.48
2017-02-27T07:19:43.655Z,22.77
2017-02-27T07:20:54.434Z,22.67
2017-02-27T07:22:05.187Z,22.77
2017-02-27T07:23:16.266Z,22.67
2017-02-27T07:24:26.237Z,22.58
2017-02-27T07:25:36.223Z,22.77
2017-02-27T07:26:46.567Z,22.96
2017-02-27T07:27:56.163Z,22.96
2017-02-27T07:29:07.179Z,22.96
2017-02-27T07:30:17.133Z,23.06
2017-02-27T07:31:27.125Z,22.97
2017-02-27T07:32:36.692Z,22.96
2017-02-27T07:33:47.066Z,23.25
2017-02-27T07:34:58.136Z,23.25
2017-02-27T07:36:08.530Z,23.06
2017-02-27T07:37:18.509Z,23.63
2017-02-27T07:38:28.871Z,23.92
2017-02-27T07:39:39.248Z,23.84
2017-02-27T07:40:50.237Z,23.84
2017-02-27T07:42:00.988Z,23.93
2017-02-27T07:43:11.344Z,23.93
2017-02-27T07:44:22.103Z,23.93
2017-02-27T07:45:32.902Z,24.03
2017-02-27T07:46:43.150Z,24.13
2017-02-27T07:47:53.153Z,24.02
2017-02-27T07:49:03.559Z,24.03
2017-02-27T07:50:13.517Z,24.03
2017-02-27T07:51:23.473Z,23.83
2017-02-27T07:52:34.500Z,23.83
2017-02-27T07:53:44.906Z,24.41
2017-02-27T07:54:55.700Z,24.22
2017-02-27T07:56:06.708Z,24.32
2017-02-27T07:57:17.453Z,24.32
2017-02-27T07:58:28.052Z,24.22
2017-02-27T07:59:38.407Z,24.22
2017-02-27T08:00:48.373Z,24.03
2017-02-27T08:01:59.159Z,24.13
2017-02-27T08:03:09.519Z,23.93
2017-02-27T08:04:20.145Z,24.41
2017-02-27T08:05:30.932Z,24.51
2017-02-27T08:06:41.726Z,24.51
2017-02-27T08:07:52.522Z,24.32
2017-02-27T08:09:03.297Z,24.61
2017-02-27T08:10:13.591Z,24.41
2017-02-27T08:11:23.980Z,24.22
2017-02-27T08:12:34.769Z,24.8
2017-02-27T08:13:45.537Z,24.7
2017-02-27T08:14:55.964Z,24.41
2017-02-27T08:16:07.033Z,24.51
2017-02-27T08:17:17.418Z,24.7
2017-02-27T08:18:27.813Z,24.9
2017-02-27T08:19:38.190Z,24.61
2017-02-27T08:20:49.028Z,24.8
2017-02-27T08:21:59.726Z,24.9
2017-02-27T08:23:10.097Z,24.61
2017-02-27T08:24:20.469Z,24.8
2017-02-27T08:25:30.839Z,24.8
2017-02-27T08:26:41.191Z,24.99
2017-02-27T08:27:52.279Z,24.99
2017-02-27T08:29:02.231Z,24.99
2017-02-27T08:30:12.633Z,24.8
2017-02-27T08:31:23.390Z,24.9
2017-02-27T08:32:34.202Z,25.28
2017-02-27T08:33:44.999Z,25.18
2017-02-27T08:34:55.772Z,24.99
2017-02-27T08:36:04.957Z,25.18
2017-02-27T08:37:15.706Z,25.09
2017-02-27T08:38:26.494Z,24.99
2017-02-27T08:39:37.511Z,24.9
2017-02-27T08:40:47.459Z,24.8
2017-02-27T08:41:57.427Z,24.9
2017-02-27T08:43:08.209Z,24.8
2017-02-27T08:44:18.954Z,24.8
2017-02-27T08:45:29.566Z,24.9
2017-02-27T08:46:39.556Z,24.8
2017-02-27T08:47:50.311Z,25.09
2017-02-27T08:48:59.878Z,25.18
2017-02-27T08:50:10.276Z,25.18
2017-02-27T08:51:21.411Z,25.09
2017-02-27T08:52:32.135Z,24.8
2017-02-27T08:53:42.494Z,24.81
2017-02-27T08:54:52.867Z,24.7
2017-02-27T08:56:03.469Z,24.22
2017-02-27T08:57:13.430Z,24.51
2017-02-27T08:58:24.244Z,24.32
2017-02-27T08:59:34.989Z,24.41
2017-02-27T09:00:45.369Z,24.23
2017-02-27T09:01:56.017Z,24.13
2017-02-27T09:03:06.774Z,24.13
2017-02-27T09:04:17.402Z,24.41
2017-02-27T09:05:28.180Z,24.22
2017-02-27T09:06:38.945Z,23.84
2017-02-27T09:07:49.971Z,23.93
2017-02-27T09:08:59.942Z,24.03
2017-02-27T09:10:10.310Z,24.03
2017-02-27T09:11:20.689Z,24.32
2017-02-27T09:12:31.060Z,24.32
2017-02-27T09:13:41.172Z,24.03
2017-02-27T09:14:51.518Z,24.13
2017-02-27T09:16:01.882Z,24.13
2017-02-27T09:17:11.857Z,24.32
2017-02-27T09:18:22.209Z,24.22
2017-02-27T09:19:32.661Z,23.85
2017-02-27T09:20:43.193Z,23.93
2017-02-27T09:21:53.958Z,23.94
2017-02-27T09:23:04.742Z,23.94
2017-02-27T09:24:15.489Z,23.85
2017-02-27T09:25:26.107Z,23.66
2017-02-27T09:26:36.486Z,23.85
2017-02-27T09:27:46.864Z,23.94
2017-02-27T09:28:57.630Z,23.93
2017-02-27T09:30:07.994Z,23.75
2017-02-27T09:31:18.605Z,23.94
2017-02-27T09:32:29.364Z,23.85
2017-02-27T09:33:38.552Z,23.75
2017-02-27T09:34:48.918Z,23.75
2017-02-27T09:35:59.680Z,23.66
2017-02-27T09:37:10.318Z,23.66
2017-02-27T09:38:20.704Z,23.46
2017-02-27T09:39:31.085Z,23.08
2017-02-27T09:40:41.431Z,23.08
2017-02-27T09:41:51.805Z,23.08
2017-02-27T09:43:02.423Z,23.18
2017-02-27T09:44:12.792Z,23.27
2017-02-27T09:45:22.762Z,23.18
2017-02-27T09:46:32.724Z,23.27
2017-02-27T09:47:43.082Z,23.27
2017-02-27T09:48:53.030Z,23.37
2017-02-27T09:50:03.002Z,23.46
2017-02-27T09:51:13.363Z,23.46
2017-02-27T09:52:24.141Z,23.46
2017-02-27T09:53:34.763Z,23.08
2017-02-27T09:54:44.736Z,23.08
2017-02-27T09:55:55.499Z,23.08
2017-02-27T09:57:06.288Z,22.99
2017-02-27T09:58:17.059Z,23.08
2017-02-27T09:59:27.322Z,22.99
2017-02-27T10:00:37.287Z,23.18
2017-02-27T10:01:48.072Z,23.08
2017-02-27T10:02:58.845Z,23.18
2017-02-27T10:04:08.835Z,22.99
2017-02-27T10:05:19.855Z,23.08
2017-02-27T10:06:30.686Z,22.99
2017-02-27T10:07:41.446Z,22.99
2017-02-27T10:08:52.221Z,22.99
2017-02-27T10:10:02.183Z,22.99
2017-02-27T10:11:12.864Z,23.08
2017-02-27T10:12:23.636Z,23.18
2017-02-27T10:13:34.042Z,22.99
2017-02-27T10:14:44.407Z,22.89
2017-02-27T10:15:54.769Z,23.46
2017-02-27T10:17:05.789Z,23.27
2017-02-27T10:18:16.171Z,23.27
2017-02-27T10:19:26.941Z,23.37
2017-02-27T10:20:37.696Z,23.37
2017-02-27T10:21:48.051Z,23.27
2017-02-27T10:22:58.669Z,23.27
2017-02-27T10:24:09.023Z,23.37
2017-02-27T10:25:19.789Z,23.27
2017-02-27T10:26:30.557Z,23.37
2017-02-27T10:27:40.512Z,23.27
2017-02-27T10:28:51.530Z,23.27
2017-02-27T10:30:02.290Z,23.27
2017-02-27T10:31:13.063Z,23.27
2017-02-27T10:32:23.859Z,23.46
2017-02-27T10:33:34.625Z,23.37
2017-02-27T10:34:45.703Z,23.37
2017-02-27T10:35:56.443Z,23.46
2017-02-27T10:37:07.226Z,22.89
2017-02-27T10:38:18.007Z,22.9
2017-02-27T10:39:28.785Z,22.99
2017-02-27T10:40:39.412Z,23.08
2017-02-27T10:41:49.895Z,23.18
2017-02-27T10:43:00.657Z,22.99
2017-02-27T10:44:11.398Z,23.08
2017-02-27T10:45:22.163Z,22.99
2017-02-27T10:46:33.171Z,23.09
2017-02-27T10:47:43.561Z,23.08
2017-02-27T10:48:53.929Z,22.9
2017-02-27T10:50:04.694Z,22.89
2017-02-27T10:51:15.053Z,22.9
2017-02-27T10:52:25.680Z,22.79
2017-02-27T10:53:36.061Z,22.89
2017-02-27T10:54:46.416Z,22.52
2017-02-27T10:55:56.794Z,22.9
2017-02-27T10:57:07.571Z,22.8
2017-02-27T10:58:18.265Z,22.8
2017-02-27T10:59:28.678Z,22.71
2017-02-27T11:00:39.110Z,22.52
2017-02-27T11:01:49.853Z,22.52
2017-02-27T11:03:00.254Z,22.52
2017-02-27T11:04:11.018Z,22.52
2017-02-27T11:05:21.821Z,22.52
2017-02-27T11:06:32.597Z,22.61
2017-02-27T11:07:42.966Z,22.42
2017-02-27T11:08:54.073Z,22.52
2017-02-27T11:10:04.442Z,22.22
2017-02-27T11:11:15.229Z,22.13
2017-02-27T11:12:26.009Z,22.13
2017-02-27T11:13:36.006Z,22.03
2017-02-27T11:14:46.772Z,21.94
2017-02-27T11:15:57.536Z,22.22
2017-02-27T11:17:07.492Z,22.13
2017-02-27T11:18:18.254Z,22.32
2017-02-27T11:19:28.880Z,22.03
2017-02-27T11:20:39.225Z,22.03
2017-02-27T11:21:49.597Z,22.03
2017-02-27T11:23:00.372Z,22.13
2017-02-27T11:24:11.168Z,22.03
2017-02-27T11:25:21.789Z,21.75
2017-02-27T11:26:32.164Z,21.65
2017-02-27T11:27:42.938Z,21.65
2017-02-27T11:28:53.357Z,21.65
2017-02-27T11:30:04.147Z,21.75
2017-02-27T11:31:15.719Z,21.47
2017-02-27T11:32:25.695Z,21.55
2017-02-27T11:33:36.470Z,21.75
2017-02-27T11:34:47.261Z,21.66
2017-02-27T11:35:57.619Z,21.75
2017-02-27T11:37:08.145Z,21.56
2017-02-27T11:38:18.583Z,21.66
2017-02-27T11:39:29.011Z,21.75
2017-02-27T11:40:39.396Z,21.75
2017-02-27T11:41:49.773Z,21.47
2017-02-27T11:43:00.756Z,21.47
2017-02-27T11:44:10.727Z,21.56
2017-02-27T11:45:21.508Z,21.45
2017-02-27T11:46:31.860Z,21.47
2017-02-27T11:47:42.259Z,21.18
2017-02-27T11:48:53.054Z,21.37
2017-02-27T11:50:03.043Z,21.37
2017-02-27T11:51:13.826Z,21.18
2017-02-27T11:52:23.421Z,21.18
2017-02-27T11:53:33.401Z,21.18
2017-02-27T11:54:44.009Z,21.18
2017-02-27T11:55:54.768Z,21.37
2017-02-27T11:57:05.149Z,21.27
2017-02-27T11:58:15.511Z,21.18
2017-02-27T11:59:25.728Z,20.98
2017-02-27T12:00:36.118Z,20.89
2017-02-27T12:01:46.902Z,20.89
2017-02-27T12:02:57.265Z,20.89
2017-02-27T12:04:08.035Z,20.89
2017-02-27T12:05:18.667Z,20.98
2017-02-27T12:06:29.008Z,20.89
2017-02-27T12:07:39.347Z,20.89
2017-02-27T12:08:50.112Z,20.98
2017-02-27T12:10:00.490Z,20.98
2017-02-27T12:11:10.713Z,20.89
2017-02-27T12:12:21.078Z,20.89
2017-02-27T12:13:31.046Z,21.18
2017-02-27T12:14:41.033Z,21.08
2017-02-27T12:15:51.417Z,20.6
2017-02-27T12:17:02.445Z,20.7
2017-02-27T12:18:12.828Z,21.27
2017-02-27T12:19:23.200Z,21.18
2017-02-27T12:20:33.570Z,20.89
2017-02-27T12:21:43.945Z,21.08
2017-02-27T12:22:54.569Z,20.98
2017-02-27T12:24:05.446Z,20.79
2017-02-27T12:25:16.212Z,21.08
2017-02-27T12:26:26.597Z,20.98
2017-02-27T12:27:36.550Z,20.89
2017-02-27T12:28:47.564Z,21.08
2017-02-27T12:29:58.340Z,21.08
2017-02-27T12:31:08.711Z,21.18
2017-02-27T12:32:19.468Z,21.27
2017-02-27T12:33:29.843Z,21.08
2017-02-27T12:34:40.873Z,20.7
2017-02-27T12:35:50.882Z,21.27
2017-02-27T12:37:01.698Z,20.88
2017-02-27T12:38:12.070Z,20.89
2017-02-27T12:39:22.025Z,20.97
2017-02-27T12:40:32.690Z,20.88
2017-02-27T12:41:42.672Z,21.26
2017-02-27T12:42:53.055Z,20.88
2017-02-27T12:44:04.092Z,20.78
2017-02-27T12:45:14.477Z,20.88
2017-02-27T12:46:25.169Z,20.79
2017-02-27T12:47:35.980Z,20.78
2017-02-27T12:48:46.801Z,20.88
2017-02-27T12:49:57.197Z,20.79
2017-02-27T12:51:08.012Z,20.89
2017-02-27T12:52:18.258Z,20.79
2017-02-27T12:53:28.236Z,20.89
2017-02-27T12:54:38.599Z,21.36
2017-02-27T12:55:48.578Z,21.27
2017-02-27T12:56:59.350Z,21.18
2017-02-27T12:58:09.661Z,21.36
2017-02-27T12:59:20.063Z,21.18
2017-02-27T13:00:30.844Z,21.47
2017-02-27T13:01:41.612Z,21.37
2017-02-27T13:02:52.408Z,21.27
2017-02-27T13:04:02.686Z,21.18
2017-02-27T13:05:13.045Z,21.18
2017-02-27T13:06:23.439Z,21.27
2017-02-27T13:07:33.418Z,21.08
2017-02-27T13:08:43.778Z,21.08
2017-02-27T13:09:54.390Z,20.79
2017-02-27T13:11:04.738Z,20.89
2017-02-27T13:12:15.144Z,20.89
2017-02-27T13:13:25.920Z,20.79
2017-02-27T13:14:36.690Z,21.18
2017-02-27T13:15:47.719Z,21.27
2017-02-27T13:16:57.746Z,21.18
2017-02-27T13:18:07.773Z,21.27
2017-02-27T13:19:18.165Z,21.18
2017-02-27T13:20:28.537Z,21.18
2017-02-27T13:21:39.170Z,21.18
2017-02-27T13:22:50.006Z,21.27
2017-02-27T13:24:00.411Z,21.18
2017-02-27T13:25:11.195Z,21.18
2017-02-27T13:26:21.567Z,21.27
2017-02-27T13:27:32.187Z,21.27
2017-02-27T13:28:42.543Z,21.47
2017-02-27T13:29:53.337Z,21.08
2017-02-27T13:31:03.717Z,21.18
2017-02-27T13:32:13.713Z,21.37
2017-02-27T13:33:24.332Z,21.37
2017-02-27T13:34:34.725Z,21.47
2017-02-27T13:35:45.493Z,21.47
2017-02-27T13:36:55.860Z,21.66
2017-02-27T13:38:06.635Z,21.47
2017-02-27T13:39:17.634Z,21.47
2017-02-27T13:40:28.396Z,21.55
2017-02-27T13:41:39.189Z,21.85
2017-02-27T13:42:49.593Z,21.55
2017-02-27T13:44:00.066Z,21.75
2017-02-27T13:45:11.152Z,21.84
2017-02-27T13:46:21.915Z,21.55
2017-02-27T13:47:32.304Z,21.75
2017-02-27T13:48:42.674Z,21.85
2017-02-27T13:49:53.039Z,22.03
2017-02-27T13:51:03.717Z,22.03
2017-02-27T13:52:14.096Z,22.13
2017-02-27T13:53:24.494Z,21.94
2017-02-27T13:54:34.892Z,21.94
2017-02-27T13:55:45.267Z,22.13
2017-02-27T13:56:55.568Z,22.13
2017-02-27T13:58:06.354Z,22.13
2017-02-27T13:59:16.716Z,22.03
2017-02-27T14:00:27.531Z,22.13
2017-02-27T14:01:37.511Z,22.03
2017-02-27T14:02:48.127Z,21.85
2017-02-27T14:03:58.926Z,21.94
2017-02-27T14:05:09.730Z,21.94
2017-02-27T14:06:20.122Z,21.94
2017-02-27T14:07:30.101Z,21.94
2017-02-27T14:08:40.403Z,21.94
2017-02-27T14:09:50.767Z,21.94
2017-02-27T14:11:00.735Z,21.94
2017-02-27T14:12:11.512Z,21.94
2017-02-27T14:13:21.890Z,21.94
2017-02-27T14:14:32.967Z,22.03
2017-02-27T14:15:43.359Z,22.22
2017-02-27T14:16:54.155Z,22.13
2017-02-27T14:18:04.905Z,22.03
2017-02-27T14:19:15.285Z,22.13
2017-02-27T14:20:25.498Z,22.13
2017-02-27T14:21:35.860Z,22.03
2017-02-27T14:22:46.251Z,21.94
2017-02-27T14:23:56.223Z,21.94
2017-02-27T14:25:06.613Z,22.03
2017-02-27T14:26:16.828Z,22.03
2017-02-27T14:27:27.612Z,22.13
2017-02-27T14:28:37.600Z,21.94
2017-02-27T14:29:48.383Z,22.22
2017-02-27T14:30:58.767Z,22.22
2017-02-27T14:32:09.391Z,22.22
2017-02-27T14:33:20.178Z,22.52
2017-02-27T14:34:30.138Z,22.61
2017-02-27T14:35:40.932Z,22.52
2017-02-27T14:36:51.308Z,22.61
2017-02-27T14:38:02.337Z,22.61
2017-02-27T14:39:13.102Z,22.52
2017-02-27T14:40:23.909Z,22.52
2017-02-27T14:41:34.276Z,22.71
2017-02-27T14:42:45.032Z,22.61
2017-02-27T14:43:56.045Z,22.61
2017-02-27T14:45:06.840Z,22.52
2017-02-27T14:46:17.265Z,22.42
2017-02-27T14:47:28.056Z,22.52
2017-02-27T14:48:38.422Z,22.52
2017-02-27T14:49:49.105Z,22.42
2017-02-27T14:50:59.848Z,22.71
2017-02-27T14:52:09.828Z,22.52
2017-02-27T14:53:20.587Z,22.71
2017-02-27T14:54:31.335Z,22.52
2017-02-27T14:55:42.036Z,22.52
2017-02-27T14:56:52.404Z,22.52
2017-02-27T14:58:01.972Z,22.52
2017-02-27T14:59:12.836Z,22.32
2017-02-27T15:00:22.823Z,22.61
2017-02-27T15:01:33.457Z,22.52
2017-02-27T15:02:44.232Z,22.52
2017-02-27T15:03:54.202Z,22.61
2017-02-27T15:05:04.600Z,22.52
2017-02-27T15:06:14.571Z,22.52
2017-02-27T15:07:25.239Z,22.52
2017-02-27T15:08:35.988Z,22.61
2017-02-27T15:09:45.937Z,22.52
2017-02-27T15:10:56.327Z,22.71
2017-02-27T15:12:07.097Z,22.52
2017-02-27T15:13:17.790Z,22.52
2017-02-27T15:14:28.151Z,22.52
2017-02-27T15:15:38.920Z,22.61
2017-02-27T15:16:49.671Z,22.71
2017-02-27T15:17:59.616Z,22.71
2017-02-27T15:19:10.625Z,22.8
2017-02-27T15:20:21.023Z,22.52
2017-02-27T15:21:31.780Z,22.71
2017-02-27T15:22:42.557Z,22.9
2017-02-27T15:23:53.312Z,22.69
2017-02-27T15:25:03.950Z,22.71
2017-02-27T15:26:14.321Z,22.71
2017-02-27T15:27:24.696Z,22.71
2017-02-27T15:28:34.654Z,22.69
2017-02-27T15:29:45.447Z,22.6